sensor_id;sensor_type;location;lat;lon;timestamp;P1;durP1;ratioP1;P2;durP2;ratioP2
26686;SDS011;14298;50.900;4.648;2024-02-21T00:00:42;2.57;;;2.03;;
26686;SDS011;14298;50.900;4.648;2024-02-21T00:03:10;2.77;;;2.57;;
26686;SDS011;14298;50.900;4.648;2024-02-21T00:05:38;9.23;;;1.93;;
26686;SDS011;14298;50.900;4.648;2024-02-21T00:08:06;4.20;;;2.57;;
26686;SDS011;14298;50.900;4.648;2024-02-21T00:10:34;9.23;;;2.43;;
26686;SDS011;14298;50.900;4.648;2024-02-21T00:13:02;9.77;;;3.60;;
26686;SDS011;14298;50.900;4.648;2024-02-21T00:15:30;3.03;;;2.60;;
26686;SDS011;14298;50.900;4.648;2024-02-21T00:17:58;3.20;;;2.90;;
26686;SDS011;14298;50.900;4.648;2024-02-21T00:20:26;2.03;;;1.93;;
26686;SDS011;14298;50.900;4.648;2024-02-21T00:22:54;3.40;;;2.73;;
26686;SDS011;14298;50.900;4.648;2024-02-21T00:25:22;5.63;;;2.43;;
26686;SDS011;14298;50.900;4.648;2024-02-21T00:27:50;4.50;;;3.10;;
26686;SDS011;14298;50.900;4.648;2024-02-21T00:30:18;3.57;;;2.53;;
26686;SDS011;14298;50.900;4.648;2024-02-21T00:32:46;3.83;;;2.87;;
26686;SDS011;14298;50.900;4.648;2024-02-21T00:35:14;5.20;;;2.43;;
26686;SDS011;14298;50.900;4.648;2024-02-21T00:37:42;5.73;;;2.20;;
26686;SDS011;14298;50.900;4.648;2024-02-21T00:40:10;1.93;;;1.73;;
26686;SDS011;14298;50.900;4.648;2024-02-21T00:42:39;3.93;;;2.23;;
26686;SDS011;14298;50.900;4.648;2024-02-21T00:45:07;5.77;;;2.23;;
26686;SDS011;14298;50.900;4.648;2024-02-21T00:47:35;5.10;;;2.23;;
26686;SDS011;14298;50.900;4.648;2024-02-21T00:50:03;2.33;;;2.13;;
26686;SDS011;14298;50.900;4.648;2024-02-21T00:52:31;2.33;;;2.17;;
26686;SDS011;14298;50.900;4.648;2024-02-21T00:54:59;2.53;;;2.33;;
26686;SDS011;14298;50.900;4.648;2024-02-21T00:57:27;3.13;;;2.83;;
26686;SDS011;14298;50.900;4.648;2024-02-21T00:59:55;6.87;;;2.90;;
26686;SDS011;14298;50.900;4.648;2024-02-21T01:02:23;4.57;;;2.80;;
26686;SDS011;14298;50.900;4.648;2024-02-21T01:04:51;3.37;;;2.70;;
26686;SDS011;14298;50.900;4.648;2024-02-21T01:07:19;3.37;;;2.63;;
26686;SDS011;14298;50.900;4.648;2024-02-21T01:09:47;3.53;;;2.80;;
26686;SDS011;14298;50.900;4.648;2024-02-21T01:12:15;7.43;;;3.77;;
26686;SDS011;14298;50.900;4.648;2024-02-21T01:14:43;3.70;;;3.40;;
26686;SDS011;14298;50.900;4.648;2024-02-21T01:17:13;5.60;;;3.47;;
26686;SDS011;14298;50.900;4.648;2024-02-21T01:19:41;8.17;;;3.43;;
26686;SDS011;14298;50.900;4.648;2024-02-21T01:22:09;4.23;;;3.43;;
26686;SDS011;14298;50.900;4.648;2024-02-21T01:24:37;4.17;;;2.87;;
26686;SDS011;14298;50.900;4.648;2024-02-21T01:27:05;8.60;;;4.47;;
26686;SDS011;14298;50.900;4.648;2024-02-21T01:29:33;19.30;;;3.60;;
26686;SDS011;14298;50.900;4.648;2024-02-21T01:32:01;6.03;;;4.27;;
26686;SDS011;14298;50.900;4.648;2024-02-21T01:34:29;10.20;;;3.03;;
26686;SDS011;14298;50.900;4.648;2024-02-21T01:36:57;4.50;;;3.33;;
26686;SDS011;14298;50.900;4.648;2024-02-21T01:39:26;4.30;;;3.87;;
26686;SDS011;14298;50.900;4.648;2024-02-21T01:41:54;3.40;;;2.83;;
26686;SDS011;14298;50.900;4.648;2024-02-21T01:44:22;4.53;;;3.63;;
26686;SDS011;14298;50.900;4.648;2024-02-21T01:46:50;3.03;;;2.80;;
26686;SDS011;14298;50.900;4.648;2024-02-21T01:49:19;3.77;;;2.90;;
26686;SDS011;14298;50.900;4.648;2024-02-21T01:51:47;6.80;;;3.80;;
26686;SDS011;14298;50.900;4.648;2024-02-21T01:54:16;2.93;;;2.67;;
26686;SDS011;14298;50.900;4.648;2024-02-21T01:56:45;6.40;;;3.27;;
26686;SDS011;14298;50.900;4.648;2024-02-21T01:59:13;4.03;;;3.43;;
26686;SDS011;14298;50.900;4.648;2024-02-21T02:01:43;4.37;;;2.13;;
26686;SDS011;14298;50.900;4.648;2024-02-21T02:04:11;4.70;;;3.30;;
26686;SDS011;14298;50.900;4.648;2024-02-21T02:06:40;5.40;;;3.77;;
26686;SDS011;14298;50.900;4.648;2024-02-21T02:09:08;4.40;;;3.70;;
26686;SDS011;14298;50.900;4.648;2024-02-21T02:11:36;3.77;;;3.47;;
26686;SDS011;14298;50.900;4.648;2024-02-21T02:14:04;4.10;;;2.90;;
26686;SDS011;14298;50.900;4.648;2024-02-21T02:16:32;3.20;;;1.97;;
26686;SDS011;14298;50.900;4.648;2024-02-21T02:19:00;3.67;;;2.83;;
26686;SDS011;14298;50.900;4.648;2024-02-21T02:21:36;5.47;;;4.47;;
26686;SDS011;14298;50.900;4.648;2024-02-21T02:24:04;7.33;;;4.13;;
26686;SDS011;14298;50.900;4.648;2024-02-21T02:26:32;4.80;;;2.63;;
26686;SDS011;14298;50.900;4.648;2024-02-21T02:29:03;3.73;;;3.33;;
26686;SDS011;14298;50.900;4.648;2024-02-21T02:34:19;4.23;;;3.13;;
26686;SDS011;14298;50.900;4.648;2024-02-21T02:36:47;6.83;;;3.07;;
26686;SDS011;14298;50.900;4.648;2024-02-21T02:39:16;3.50;;;3.07;;
26686;SDS011;14298;50.900;4.648;2024-02-21T02:41:44;2.27;;;2.07;;
26686;SDS011;14298;50.900;4.648;2024-02-21T02:44:12;10.87;;;3.30;;
26686;SDS011;14298;50.900;4.648;2024-02-21T02:49:27;3.87;;;2.80;;
26686;SDS011;14298;50.900;4.648;2024-02-21T02:51:55;2.20;;;2.10;;
26686;SDS011;14298;50.900;4.648;2024-02-21T02:54:23;3.40;;;2.00;;
26686;SDS011;14298;50.900;4.648;2024-02-21T02:56:51;1.60;;;1.50;;
26686;SDS011;14298;50.900;4.648;2024-02-21T02:59:19;3.23;;;2.67;;
26686;SDS011;14298;50.900;4.648;2024-02-21T03:01:47;3.03;;;2.23;;
26686;SDS011;14298;50.900;4.648;2024-02-21T03:04:15;4.13;;;2.80;;
26686;SDS011;14298;50.900;4.648;2024-02-21T03:06:43;5.50;;;3.20;;
26686;SDS011;14298;50.900;4.648;2024-02-21T03:09:11;4.13;;;3.20;;
26686;SDS011;14298;50.900;4.648;2024-02-21T03:11:39;5.03;;;3.07;;
26686;SDS011;14298;50.900;4.648;2024-02-21T03:14:07;6.60;;;3.47;;
26686;SDS011;14298;50.900;4.648;2024-02-21T03:16:36;8.37;;;3.13;;
26686;SDS011;14298;50.900;4.648;2024-02-21T03:19:03;7.33;;;3.10;;
26686;SDS011;14298;50.900;4.648;2024-02-21T03:21:32;14.90;;;2.70;;
26686;SDS011;14298;50.900;4.648;2024-02-21T03:23:59;4.43;;;2.90;;
26686;SDS011;14298;50.900;4.648;2024-02-21T03:26:28;3.73;;;3.13;;
26686;SDS011;14298;50.900;4.648;2024-02-21T03:28:56;2.73;;;2.53;;
26686;SDS011;14298;50.900;4.648;2024-02-21T03:31:24;2.80;;;2.03;;
26686;SDS011;14298;50.900;4.648;2024-02-21T03:33:52;6.67;;;2.93;;
26686;SDS011;14298;50.900;4.648;2024-02-21T03:36:19;4.63;;;3.20;;
26686;SDS011;14298;50.900;4.648;2024-02-21T03:38:47;2.27;;;2.10;;
26686;SDS011;14298;50.900;4.648;2024-02-21T03:41:16;8.23;;;3.73;;
26686;SDS011;14298;50.900;4.648;2024-02-21T03:43:44;2.27;;;2.03;;
26686;SDS011;14298;50.900;4.648;2024-02-21T03:46:11;4.73;;;3.10;;
26686;SDS011;14298;50.900;4.648;2024-02-21T03:51:27;5.47;;;3.40;;
26686;SDS011;14298;50.900;4.648;2024-02-21T03:53:55;4.00;;;2.23;;
26686;SDS011;14298;50.900;4.648;2024-02-21T03:56:23;7.93;;;4.00;;
26686;SDS011;14298;50.900;4.648;2024-02-21T03:58:51;7.53;;;4.13;;
26686;SDS011;14298;50.900;4.648;2024-02-21T04:01:19;16.37;;;3.20;;
26686;SDS011;14298;50.900;4.648;2024-02-21T04:03:47;3.93;;;3.63;;
26686;SDS011;14298;50.900;4.648;2024-02-21T04:06:15;5.90;;;3.30;;
26686;SDS011;14298;50.900;4.648;2024-02-21T04:08:43;6.17;;;2.73;;
26686;SDS011;14298;50.900;4.648;2024-02-21T04:11:12;4.77;;;3.20;;
26686;SDS011;14298;50.900;4.648;2024-02-21T04:13:40;11.93;;;4.07;;
26686;SDS011;14298;50.900;4.648;2024-02-21T04:16:08;5.77;;;2.47;;
26686;SDS011;14298;50.900;4.648;2024-02-21T04:18:36;5.40;;;2.93;;
26686;SDS011;14298;50.900;4.648;2024-02-21T04:21:04;4.73;;;3.17;;
26686;SDS011;14298;50.900;4.648;2024-02-21T04:23:32;2.73;;;2.40;;
26686;SDS011;14298;50.900;4.648;2024-02-21T04:26:00;8.10;;;2.90;;
26686;SDS011;14298;50.900;4.648;2024-02-21T04:28:28;2.27;;;2.03;;
26686;SDS011;14298;50.900;4.648;2024-02-21T04:30:56;6.00;;;3.53;;
26686;SDS011;14298;50.900;4.648;2024-02-21T04:33:24;2.77;;;2.33;;
26686;SDS011;14298;50.900;4.648;2024-02-21T04:35:52;2.37;;;2.17;;
26686;SDS011;14298;50.900;4.648;2024-02-21T04:38:22;2.60;;;2.40;;
26686;SDS011;14298;50.900;4.648;2024-02-21T04:40:50;3.90;;;2.60;;
26686;SDS011;14298;50.900;4.648;2024-02-21T04:43:18;6.10;;;2.37;;
26686;SDS011;14298;50.900;4.648;2024-02-21T04:45:46;5.73;;;3.47;;
26686;SDS011;14298;50.900;4.648;2024-02-21T04:51:01;3.73;;;3.13;;
26686;SDS011;14298;50.900;4.648;2024-02-21T04:53:29;8.33;;;1.93;;
26686;SDS011;14298;50.900;4.648;2024-02-21T04:55:57;3.67;;;2.73;;
26686;SDS011;14298;50.900;4.648;2024-02-21T04:58:25;4.43;;;3.13;;
26686;SDS011;14298;50.900;4.648;2024-02-21T05:03:46;10.33;;;3.83;;
26686;SDS011;14298;50.900;4.648;2024-02-21T05:06:14;2.30;;;2.20;;
26686;SDS011;14298;50.900;4.648;2024-02-21T05:08:42;5.00;;;2.77;;
26686;SDS011;14298;50.900;4.648;2024-02-21T05:11:10;3.57;;;2.93;;
26686;SDS011;14298;50.900;4.648;2024-02-21T05:13:38;3.70;;;2.40;;
26686;SDS011;14298;50.900;4.648;2024-02-21T05:16:06;7.20;;;3.03;;
26686;SDS011;14298;50.900;4.648;2024-02-21T05:18:34;7.17;;;2.47;;
26686;SDS011;14298;50.900;4.648;2024-02-21T05:21:02;3.07;;;2.67;;
26686;SDS011;14298;50.900;4.648;2024-02-21T05:23:30;5.77;;;3.53;;
26686;SDS011;14298;50.900;4.648;2024-02-21T05:25:58;4.37;;;3.10;;
26686;SDS011;14298;50.900;4.648;2024-02-21T05:28:26;2.37;;;1.73;;
26686;SDS011;14298;50.900;4.648;2024-02-21T05:30:54;12.53;;;2.90;;
26686;SDS011;14298;50.900;4.648;2024-02-21T05:33:22;4.23;;;3.50;;
26686;SDS011;14298;50.900;4.648;2024-02-21T05:35:50;3.10;;;2.13;;
26686;SDS011;14298;50.900;4.648;2024-02-21T05:38:18;4.43;;;2.67;;
26686;SDS011;14298;50.900;4.648;2024-02-21T05:40:46;2.47;;;1.87;;
26686;SDS011;14298;50.900;4.648;2024-02-21T05:43:14;7.70;;;2.83;;
26686;SDS011;14298;50.900;4.648;2024-02-21T05:45:42;7.13;;;2.77;;
26686;SDS011;14298;50.900;4.648;2024-02-21T05:48:10;2.57;;;2.37;;
26686;SDS011;14298;50.900;4.648;2024-02-21T05:50:39;3.23;;;2.43;;
26686;SDS011;14298;50.900;4.648;2024-02-21T05:53:07;5.20;;;2.03;;
26686;SDS011;14298;50.900;4.648;2024-02-21T05:58:22;3.07;;;2.50;;
26686;SDS011;14298;50.900;4.648;2024-02-21T06:00:50;2.47;;;2.20;;
26686;SDS011;14298;50.900;4.648;2024-02-21T06:03:18;2.37;;;2.17;;
26686;SDS011;14298;50.900;4.648;2024-02-21T06:05:46;2.63;;;2.43;;
26686;SDS011;14298;50.900;4.648;2024-02-21T06:08:14;2.40;;;2.20;;
26686;SDS011;14298;50.900;4.648;2024-02-21T06:10:42;1.80;;;1.53;;
26686;SDS011;14298;50.900;4.648;2024-02-21T06:13:10;1.77;;;1.67;;
26686;SDS011;14298;50.900;4.648;2024-02-21T06:15:38;1.97;;;1.87;;
26686;SDS011;14298;50.900;4.648;2024-02-21T06:18:06;2.30;;;1.80;;
26686;SDS011;14298;50.900;4.648;2024-02-21T06:20:34;3.57;;;2.60;;
26686;SDS011;14298;50.900;4.648;2024-02-21T06:23:03;5.50;;;2.90;;
26686;SDS011;14298;50.900;4.648;2024-02-21T06:25:31;2.27;;;2.07;;
26686;SDS011;14298;50.900;4.648;2024-02-21T06:27:59;2.73;;;1.97;;
26686;SDS011;14298;50.900;4.648;2024-02-21T06:30:27;1.57;;;1.47;;
26686;SDS011;14298;50.900;4.648;2024-02-21T06:32:55;2.23;;;2.00;;
26686;SDS011;14298;50.900;4.648;2024-02-21T06:35:23;2.97;;;2.23;;
26686;SDS011;14298;50.900;4.648;2024-02-21T06:37:51;4.00;;;1.90;;
26686;SDS011;14298;50.900;4.648;2024-02-21T06:40:23;2.03;;;1.57;;
26686;SDS011;14298;50.900;4.648;2024-02-21T06:42:51;2.23;;;2.03;;
26686;SDS011;14298;50.900;4.648;2024-02-21T06:45:19;4.10;;;1.50;;
26686;SDS011;14298;50.900;4.648;2024-02-21T06:47:47;2.77;;;1.20;;
26686;SDS011;14298;50.900;4.648;2024-02-21T06:50:15;9.07;;;1.30;;
26686;SDS011;14298;50.900;4.648;2024-02-21T06:52:43;2.47;;;1.67;;
26686;SDS011;14298;50.900;4.648;2024-02-21T06:55:11;2.20;;;1.83;;
26686;SDS011;14298;50.900;4.648;2024-02-21T06:57:39;1.70;;;1.60;;
26686;SDS011;14298;50.900;4.648;2024-02-21T07:00:07;1.80;;;1.70;;
26686;SDS011;14298;50.900;4.648;2024-02-21T07:02:36;1.73;;;1.57;;
26686;SDS011;14298;50.900;4.648;2024-02-21T07:05:04;3.20;;;2.10;;
26686;SDS011;14298;50.900;4.648;2024-02-21T07:07:32;2.57;;;1.60;;
26686;SDS011;14298;50.900;4.648;2024-02-21T07:10:01;1.93;;;1.73;;
26686;SDS011;14298;50.900;4.648;2024-02-21T07:12:31;4.50;;;1.90;;
26686;SDS011;14298;50.900;4.648;2024-02-21T07:14:59;1.97;;;1.83;;
26686;SDS011;14298;50.900;4.648;2024-02-21T07:17:27;1.97;;;1.83;;
26686;SDS011;14298;50.900;4.648;2024-02-21T07:19:55;2.40;;;2.20;;
26686;SDS011;14298;50.900;4.648;2024-02-21T07:22:25;9.20;;;2.67;;
26686;SDS011;14298;50.900;4.648;2024-02-21T07:24:53;3.40;;;2.00;;
26686;SDS011;14298;50.900;4.648;2024-02-21T07:27:21;3.73;;;2.77;;
26686;SDS011;14298;50.900;4.648;2024-02-21T07:29:49;1.87;;;1.77;;
26686;SDS011;14298;50.900;4.648;2024-02-21T07:32:17;2.57;;;2.37;;
26686;SDS011;14298;50.900;4.648;2024-02-21T07:34:45;2.43;;;2.23;;
26686;SDS011;14298;50.900;4.648;2024-02-21T07:37:13;6.27;;;3.33;;
26686;SDS011;14298;50.900;4.648;2024-02-21T07:39:40;2.23;;;2.03;;
26686;SDS011;14298;50.900;4.648;2024-02-21T07:42:09;4.60;;;2.50;;
26686;SDS011;14298;50.900;4.648;2024-02-21T07:44:37;2.93;;;2.63;;
26686;SDS011;14298;50.900;4.648;2024-02-21T07:47:05;2.90;;;2.37;;
26686;SDS011;14298;50.900;4.648;2024-02-21T07:49:40;1.90;;;1.80;;
26686;SDS011;14298;50.900;4.648;2024-02-21T07:52:03;3.53;;;2.87;;
26686;SDS011;14298;50.900;4.648;2024-02-21T07:54:31;2.40;;;2.20;;
26686;SDS011;14298;50.900;4.648;2024-02-21T07:56:59;4.47;;;3.47;;
26686;SDS011;14298;50.900;4.648;2024-02-21T08:02:20;3.67;;;2.83;;
26686;SDS011;14298;50.900;4.648;2024-02-21T08:04:48;4.73;;;3.73;;
26686;SDS011;14298;50.900;4.648;2024-02-21T08:07:16;9.13;;;3.60;;
26686;SDS011;14298;50.900;4.648;2024-02-21T08:09:44;4.10;;;3.10;;
26686;SDS011;14298;50.900;4.648;2024-02-21T08:12:12;3.20;;;2.90;;
26686;SDS011;14298;50.900;4.648;2024-02-21T08:14:40;3.30;;;2.17;;
26686;SDS011;14298;50.900;4.648;2024-02-21T08:17:08;3.27;;;2.77;;
26686;SDS011;14298;50.900;4.648;2024-02-21T08:19:36;4.13;;;2.90;;
26686;SDS011;14298;50.900;4.648;2024-02-21T08:22:04;7.80;;;4.47;;
26686;SDS011;14298;50.900;4.648;2024-02-21T08:24:33;4.60;;;2.87;;
26686;SDS011;14298;50.900;4.648;2024-02-21T08:27:01;7.23;;;4.90;;
26686;SDS011;14298;50.900;4.648;2024-02-21T08:29:29;3.63;;;2.50;;
26686;SDS011;14298;50.900;4.648;2024-02-21T08:31:57;2.50;;;2.30;;
26686;SDS011;14298;50.900;4.648;2024-02-21T08:34:25;7.73;;;5.57;;
26686;SDS011;14298;50.900;4.648;2024-02-21T08:36:55;5.40;;;3.43;;
26686;SDS011;14298;50.900;4.648;2024-02-21T08:39:23;2.70;;;2.50;;
26686;SDS011;14298;50.900;4.648;2024-02-21T08:41:51;7.37;;;3.70;;
26686;SDS011;14298;50.900;4.648;2024-02-21T08:44:19;3.60;;;2.10;;
26686;SDS011;14298;50.900;4.648;2024-02-21T08:46:47;6.43;;;4.17;;
26686;SDS011;14298;50.900;4.648;2024-02-21T08:49:15;4.33;;;2.20;;
26686;SDS011;14298;50.900;4.648;2024-02-21T08:51:43;3.23;;;2.37;;
26686;SDS011;14298;50.900;4.648;2024-02-21T08:54:11;4.23;;;2.50;;
26686;SDS011;14298;50.900;4.648;2024-02-21T08:56:39;2.03;;;1.83;;
26686;SDS011;14298;50.900;4.648;2024-02-21T08:59:07;2.87;;;1.70;;
26686;SDS011;14298;50.900;4.648;2024-02-21T09:01:35;17.40;;;6.27;;
26686;SDS011;14298;50.900;4.648;2024-02-21T09:04:04;3.00;;;2.03;;
26686;SDS011;14298;50.900;4.648;2024-02-21T09:06:32;6.30;;;2.13;;
26686;SDS011;14298;50.900;4.648;2024-02-21T09:09:02;8.37;;;5.87;;
26686;SDS011;14298;50.900;4.648;2024-02-21T09:11:30;1.63;;;1.53;;
26686;SDS011;14298;50.900;4.648;2024-02-21T09:13:58;7.57;;;1.70;;
26686;SDS011;14298;50.900;4.648;2024-02-21T09:16:26;4.63;;;2.87;;
26686;SDS011;14298;50.900;4.648;2024-02-21T09:18:54;5.57;;;2.47;;
26686;SDS011;14298;50.900;4.648;2024-02-21T09:21:24;1.90;;;1.73;;
26686;SDS011;14298;50.900;4.648;2024-02-21T09:23:52;1.30;;;1.20;;
26686;SDS011;14298;50.900;4.648;2024-02-21T09:26:20;1.30;;;1.20;;
26686;SDS011;14298;50.900;4.648;2024-02-21T09:28:48;1.73;;;1.63;;
26686;SDS011;14298;50.900;4.648;2024-02-21T09:31:16;1.50;;;1.10;;
26686;SDS011;14298;50.900;4.648;2024-02-21T09:33:44;1.47;;;1.37;;
26686;SDS011;14298;50.900;4.648;2024-02-21T09:36:12;1.27;;;1.20;;
26686;SDS011;14298;50.900;4.648;2024-02-21T09:38:40;1.93;;;1.37;;
26686;SDS011;14298;50.900;4.648;2024-02-21T09:41:14;3.43;;;1.90;;
26686;SDS011;14298;50.900;4.648;2024-02-21T09:43:38;1.23;;;1.13;;
26686;SDS011;14298;50.900;4.648;2024-02-21T09:51:47;3.17;;;2.67;;
26686;SDS011;14298;50.900;4.648;2024-02-21T09:54:15;1.40;;;1.20;;
26686;SDS011;14298;50.900;4.648;2024-02-21T09:56:45;1.60;;;1.50;;
26686;SDS011;14298;50.900;4.648;2024-02-21T09:59:16;2.10;;;1.73;;
26686;SDS011;14298;50.900;4.648;2024-02-21T10:01:44;3.40;;;1.43;;
26686;SDS011;14298;50.900;4.648;2024-02-21T10:04:13;4.73;;;1.17;;
26686;SDS011;14298;50.900;4.648;2024-02-21T10:06:41;3.60;;;2.20;;
26686;SDS011;14298;50.900;4.648;2024-02-21T10:09:19;2.30;;;1.47;;
26686;SDS011;14298;50.900;4.648;2024-02-21T10:11:39;2.13;;;1.87;;
26686;SDS011;14298;50.900;4.648;2024-02-21T10:14:07;1.50;;;1.40;;
26686;SDS011;14298;50.900;4.648;2024-02-21T10:16:35;1.20;;;1.17;;
26686;SDS011;14298;50.900;4.648;2024-02-21T10:19:04;1.60;;;1.37;;
26686;SDS011;14298;50.900;4.648;2024-02-21T10:21:32;1.60;;;1.20;;
26686;SDS011;14298;50.900;4.648;2024-02-21T10:24:00;1.27;;;1.17;;
26686;SDS011;14298;50.900;4.648;2024-02-21T10:26:28;2.77;;;1.60;;
26686;SDS011;14298;50.900;4.648;2024-02-21T10:28:56;2.67;;;1.80;;
26686;SDS011;14298;50.900;4.648;2024-02-21T10:31:25;1.03;;;0.93;;
26686;SDS011;14298;50.900;4.648;2024-02-21T10:33:53;1.60;;;1.50;;
26686;SDS011;14298;50.900;4.648;2024-02-21T10:36:22;1.53;;;1.43;;
26686;SDS011;14298;50.900;4.648;2024-02-21T10:38:51;1.20;;;1.10;;
26686;SDS011;14298;50.900;4.648;2024-02-21T10:41:21;2.03;;;1.77;;
26686;SDS011;14298;50.900;4.648;2024-02-21T10:43:50;1.83;;;1.43;;
26686;SDS011;14298;50.900;4.648;2024-02-21T10:46:21;2.10;;;1.50;;
26686;SDS011;14298;50.900;4.648;2024-02-21T10:51:29;6.40;;;1.70;;
26686;SDS011;14298;50.900;4.648;2024-02-21T10:59:14;2.67;;;2.03;;
26686;SDS011;14298;50.900;4.648;2024-02-21T11:01:42;1.87;;;1.67;;
26686;SDS011;14298;50.900;4.648;2024-02-21T11:04:11;5.00;;;1.93;;
26686;SDS011;14298;50.900;4.648;2024-02-21T11:09:30;1.10;;;1.00;;
26686;SDS011;14298;50.900;4.648;2024-02-21T11:12:03;2.50;;;1.73;;
26686;SDS011;14298;50.900;4.648;2024-02-21T11:14:32;2.00;;;1.53;;
26686;SDS011;14298;50.900;4.648;2024-02-21T11:17:01;1.23;;;1.13;;
26686;SDS011;14298;50.900;4.648;2024-02-21T11:19:31;2.17;;;1.00;;
26686;SDS011;14298;50.900;4.648;2024-02-21T11:21:59;1.30;;;1.23;;
26686;SDS011;14298;50.900;4.648;2024-02-21T11:24:28;3.03;;;1.00;;
26686;SDS011;14298;50.900;4.648;2024-02-21T11:27:07;8.03;;;1.23;;
26686;SDS011;14298;50.900;4.648;2024-02-21T11:29:26;1.17;;;1.17;;
26686;SDS011;14298;50.900;4.648;2024-02-21T11:31:55;6.43;;;1.63;;
26686;SDS011;14298;50.900;4.648;2024-02-21T11:34:23;1.40;;;1.23;;
26686;SDS011;14298;50.900;4.648;2024-02-21T11:36:52;1.50;;;1.30;;
26686;SDS011;14298;50.900;4.648;2024-02-21T11:39:23;2.03;;;1.37;;
26686;SDS011;14298;50.900;4.648;2024-02-21T11:42:01;0.67;;;0.67;;
26686;SDS011;14298;50.900;4.648;2024-02-21T11:44:30;1.30;;;1.13;;
26686;SDS011;14298;50.900;4.648;2024-02-21T11:46:58;1.60;;;0.87;;
26686;SDS011;14298;50.900;4.648;2024-02-21T11:49:29;0.70;;;0.70;;
26686;SDS011;14298;50.900;4.648;2024-02-21T11:52:01;4.63;;;1.10;;
26686;SDS011;14298;50.900;4.648;2024-02-21T11:54:31;1.17;;;1.07;;
26686;SDS011;14298;50.900;4.648;2024-02-21T11:56:59;0.57;;;0.57;;
26686;SDS011;14298;50.900;4.648;2024-02-21T11:59:33;1.27;;;0.87;;
26686;SDS011;14298;50.900;4.648;2024-02-21T12:01:58;1.37;;;1.20;;
26686;SDS011;14298;50.900;4.648;2024-02-21T12:04:26;0.80;;;0.80;;
26686;SDS011;14298;50.900;4.648;2024-02-21T12:06:54;1.87;;;1.03;;
26686;SDS011;14298;50.900;4.648;2024-02-21T12:09:22;0.97;;;0.90;;
26686;SDS011;14298;50.900;4.648;2024-02-21T12:11:57;0.83;;;0.83;;
26686;SDS011;14298;50.900;4.648;2024-02-21T12:14:27;0.93;;;0.80;;
26686;SDS011;14298;50.900;4.648;2024-02-21T12:16:55;1.13;;;0.80;;
26686;SDS011;14298;50.900;4.648;2024-02-21T12:19:23;0.93;;;0.70;;
26686;SDS011;14298;50.900;4.648;2024-02-21T12:21:51;0.70;;;0.67;;
26686;SDS011;14298;50.900;4.648;2024-02-21T12:24:22;0.80;;;0.80;;
26686;SDS011;14298;50.900;4.648;2024-02-21T12:26:51;1.50;;;1.40;;
26686;SDS011;14298;50.900;4.648;2024-02-21T12:29:19;1.03;;;1.00;;
26686;SDS011;14298;50.900;4.648;2024-02-21T12:31:47;1.00;;;1.00;;
26686;SDS011;14298;50.900;4.648;2024-02-21T12:34:15;3.17;;;1.07;;
26686;SDS011;14298;50.900;4.648;2024-02-21T12:39:31;1.57;;;1.00;;
26686;SDS011;14298;50.900;4.648;2024-02-21T12:41:59;0.80;;;0.80;;
26686;SDS011;14298;50.900;4.648;2024-02-21T12:44:27;1.33;;;1.00;;
26686;SDS011;14298;50.900;4.648;2024-02-21T12:46:55;1.43;;;1.23;;
26686;SDS011;14298;50.900;4.648;2024-02-21T12:49:23;10.43;;;1.57;;
26686;SDS011;14298;50.900;4.648;2024-02-21T12:51:51;1.90;;;0.87;;
26686;SDS011;14298;50.900;4.648;2024-02-21T12:54:19;1.33;;;0.97;;
26686;SDS011;14298;50.900;4.648;2024-02-21T12:56:48;1.43;;;1.20;;
26686;SDS011;14298;50.900;4.648;2024-02-21T12:59:17;1.63;;;1.40;;
26686;SDS011;14298;50.900;4.648;2024-02-21T13:01:44;1.37;;;1.27;;
26686;SDS011;14298;50.900;4.648;2024-02-21T13:04:13;0.83;;;0.83;;
26686;SDS011;14298;50.900;4.648;2024-02-21T13:06:41;10.60;;;1.17;;
26686;SDS011;14298;50.900;4.648;2024-02-21T13:09:09;0.67;;;0.67;;
26686;SDS011;14298;50.900;4.648;2024-02-21T13:11:38;1.20;;;1.17;;
26686;SDS011;14298;50.900;4.648;2024-02-21T13:14:07;3.23;;;1.00;;
26686;SDS011;14298;50.900;4.648;2024-02-21T13:16:35;1.70;;;1.27;;
26686;SDS011;14298;50.900;4.648;2024-02-21T13:19:06;1.60;;;1.50;;
26686;SDS011;14298;50.900;4.648;2024-02-21T13:21:35;12.07;;;1.63;;
26686;SDS011;14298;50.900;4.648;2024-02-21T13:24:03;1.63;;;0.93;;
26686;SDS011;14298;50.900;4.648;2024-02-21T13:26:31;0.57;;;0.57;;
26686;SDS011;14298;50.900;4.648;2024-02-21T13:28:59;0.90;;;0.90;;
26686;SDS011;14298;50.900;4.648;2024-02-21T13:31:27;0.83;;;0.57;;
26686;SDS011;14298;50.900;4.648;2024-02-21T13:33:55;1.10;;;1.00;;
26686;SDS011;14298;50.900;4.648;2024-02-21T13:36:23;1.53;;;1.03;;
26686;SDS011;14298;50.900;4.648;2024-02-21T13:41:41;0.93;;;0.90;;
26686;SDS011;14298;50.900;4.648;2024-02-21T13:44:09;0.80;;;0.80;;
26686;SDS011;14298;50.900;4.648;2024-02-21T13:46:37;1.90;;;1.80;;
26686;SDS011;14298;50.900;4.648;2024-02-21T13:49:06;2.00;;;1.10;;
26686;SDS011;14298;50.900;4.648;2024-02-21T13:51:34;1.17;;;1.10;;
26686;SDS011;14298;50.900;4.648;2024-02-21T13:54:07;0.77;;;0.77;;
26686;SDS011;14298;50.900;4.648;2024-02-21T13:56:36;6.53;;;1.10;;
26686;SDS011;14298;50.900;4.648;2024-02-21T13:59:04;1.27;;;1.07;;
26686;SDS011;14298;50.900;4.648;2024-02-21T14:01:32;3.80;;;1.40;;
26686;SDS011;14298;50.900;4.648;2024-02-21T14:04:00;1.17;;;1.03;;
26686;SDS011;14298;50.900;4.648;2024-02-21T14:06:28;0.87;;;0.87;;
26686;SDS011;14298;50.900;4.648;2024-02-21T14:08:56;2.80;;;1.60;;
26686;SDS011;14298;50.900;4.648;2024-02-21T14:11:24;2.70;;;1.70;;
26686;SDS011;14298;50.900;4.648;2024-02-21T14:13:52;6.73;;;1.87;;
26686;SDS011;14298;50.900;4.648;2024-02-21T14:16:21;1.90;;;1.27;;
26686;SDS011;14298;50.900;4.648;2024-02-21T14:18:49;1.37;;;1.27;;
26686;SDS011;14298;50.900;4.648;2024-02-21T14:21:17;1.47;;;1.37;;
26686;SDS011;14298;50.900;4.648;2024-02-21T14:23:46;4.47;;;1.40;;
26686;SDS011;14298;50.900;4.648;2024-02-21T14:26:14;3.40;;;1.83;;
26686;SDS011;14298;50.900;4.648;2024-02-21T14:28:42;1.10;;;1.03;;
26686;SDS011;14298;50.900;4.648;2024-02-21T14:31:10;2.37;;;1.87;;
26686;SDS011;14298;50.900;4.648;2024-02-21T14:33:38;1.73;;;1.50;;
26686;SDS011;14298;50.900;4.648;2024-02-21T14:36:07;2.30;;;2.13;;
26686;SDS011;14298;50.900;4.648;2024-02-21T14:38:35;1.70;;;1.30;;
26686;SDS011;14298;50.900;4.648;2024-02-21T14:41:03;2.00;;;1.57;;
26686;SDS011;14298;50.900;4.648;2024-02-21T14:43:31;1.40;;;1.30;;
26686;SDS011;14298;50.900;4.648;2024-02-21T14:46:01;5.60;;;2.20;;
26686;SDS011;14298;50.900;4.648;2024-02-21T14:48:34;1.97;;;1.37;;
26686;SDS011;14298;50.900;4.648;2024-02-21T14:51:03;3.33;;;2.33;;
26686;SDS011;14298;50.900;4.648;2024-02-21T14:53:31;1.83;;;1.73;;
26686;SDS011;14298;50.900;4.648;2024-02-21T14:56:02;1.87;;;1.60;;
26686;SDS011;14298;50.900;4.648;2024-02-21T14:58:30;1.60;;;1.50;;
26686;SDS011;14298;50.900;4.648;2024-02-21T15:00:58;2.20;;;1.83;;
26686;SDS011;14298;50.900;4.648;2024-02-21T15:03:26;1.67;;;1.57;;
26686;SDS011;14298;50.900;4.648;2024-02-21T15:05:54;2.23;;;1.40;;
26686;SDS011;14298;50.900;4.648;2024-02-21T15:08:22;5.07;;;2.17;;
26686;SDS011;14298;50.900;4.648;2024-02-21T15:10:50;3.17;;;2.30;;
26686;SDS011;14298;50.900;4.648;2024-02-21T15:13:18;1.70;;;1.60;;
26686;SDS011;14298;50.900;4.648;2024-02-21T15:15:47;2.17;;;1.50;;
26686;SDS011;14298;50.900;4.648;2024-02-21T15:18:15;6.40;;;2.57;;
26686;SDS011;14298;50.900;4.648;2024-02-21T15:20:43;1.97;;;1.77;;
26686;SDS011;14298;50.900;4.648;2024-02-21T15:23:11;4.10;;;2.43;;
26686;SDS011;14298;50.900;4.648;2024-02-21T15:25:39;1.63;;;1.30;;
26686;SDS011;14298;50.900;4.648;2024-02-21T15:28:08;1.23;;;1.23;;
26686;SDS011;14298;50.900;4.648;2024-02-21T15:30:37;3.93;;;1.97;;
26686;SDS011;14298;50.900;4.648;2024-02-21T15:33:05;3.70;;;2.63;;
26686;SDS011;14298;50.900;4.648;2024-02-21T15:35:33;2.63;;;2.43;;